Time;durP1;ratioP1;P1;durP2;ratioP2;P2;SDS_P1;SDS_P2;PMS_P1;PMS_P2;Temp;Humidity;BMP_temperature;BMP_pressure;BME280_temperature;BME280_humidity;BME280_pressure;Samples;Min_cycle;Max_cycle;Signal;HPM_P1;HPM_P2
2023/09/27 00:00:38;;;;;;;14.90;13.00;;;15.40;99.90;;;;;;5053964;28;20041;-83
2023/09/27 00:03:04;;;;;;;18.98;13.77;;;15.40;99.90;;;;;;5068533;28;20037;-83
2023/09/27 00:05:30;;;;;;;18.88;14.32;;;15.40;99.90;;;;;;5054778;28;20039;-84
2023/09/27 00:07:57;;;;;;;16.63;14.68;;;15.40;99.90;;;;;;5071560;28;20036;-84
2023/09/27 00:10:23;;;;;;;17.45;14.57;;;15.50;99.90;;;;;;5054404;28;20124;-84
2023/09/27 00:12:48;;;;;;;16.20;14.48;;;15.40;99.90;;;;;;5064300;28;20125;-84
2023/09/27 00:15:14;;;;;;;16.95;14.32;;;15.40;99.90;;;;;;5055086;28;20047;-85
2023/09/27 00:17:41;;;;;;;17.25;14.52;;;15.40;99.90;;;;;;5054675;28;20033;-85
2023/09/27 00:20:11;;;;;;;17.10;13.98;;;15.40;99.90;;;;;;5054785;28;20071;-85
2023/09/27 00:22:37;;;;;;;17.40;14.65;;;15.50;99.90;;;;;;5055185;28;20029;-84
2023/09/27 00:25:04;;;;;;;20.80;15.57;;;15.40;99.90;;;;;;5074937;28;20489;-84
2023/09/27 00:27:31;;;;;;;19.65;15.13;;;15.40;99.90;;;;;;5058392;28;20484;-85
2023/09/27 00:29:57;;;;;;;17.08;14.35;;;15.40;99.90;;;;;;5074260;28;20060;-85
2023/09/27 00:32:23;;;;;;;17.83;15.00;;;15.40;99.90;;;;;;5075083;28;20072;-84
2023/09/27 00:34:48;;;;;;;16.38;14.35;;;15.40;99.90;;;;;;5056645;28;20407;-84
2023/09/27 00:37:14;;;;;;;17.05;15.20;;;15.40;99.90;;;;;;5075052;28;20040;-84
2023/09/27 00:39:40;;;;;;;17.02;14.85;;;15.40;99.90;;;;;;5057261;28;20037;-85
2023/09/27 00:42:05;;;;;;;17.17;14.00;;;15.30;99.90;;;;;;5058308;28;20107;-84
2023/09/27 00:44:31;;;;;;;18.83;14.30;;;15.30;99.90;;;;;;5069520;28;20033;-83
2023/09/27 00:46:57;;;;;;;17.00;15.20;;;15.30;99.90;;;;;;5074675;28;20063;-83
2023/09/27 00:49:23;;;;;;;16.88;15.07;;;15.30;99.90;;;;;;5073558;28;20459;-84
2023/09/27 00:51:49;;;;;;;17.75;15.48;;;15.30;99.90;;;;;;5057956;28;20047;-84
2023/09/27 00:54:15;;;;;;;16.25;14.27;;;15.30;99.90;;;;;;5056460;28;20033;-84
2023/09/27 00:56:41;;;;;;;18.38;14.43;;;15.20;99.90;;;;;;5057802;28;20183;-84
2023/09/27 00:59:07;;;;;;;17.00;14.50;;;15.20;99.90;;;;;;5073454;28;20123;-82
2023/09/27 01:01:33;;;;;;;16.95;14.48;;;15.20;99.90;;;;;;5055986;28;20037;-84
2023/09/27 01:03:59;;;;;;;17.17;14.52;;;15.20;99.90;;;;;;5054606;28;20083;-84
2023/09/27 01:06:25;;;;;;;17.55;14.93;;;15.20;99.90;;;;;;5054728;28;20139;-84
2023/09/27 01:08:51;;;;;;;18.00;15.60;;;15.20;99.90;;;;;;5068703;28;20072;-83
2023/09/27 01:11:17;;;;;;;17.55;14.98;;;15.10;99.90;;;;;;5056807;28;20079;-83
2023/09/27 01:13:43;;;;;;;17.00;15.18;;;15.10;99.90;;;;;;5057767;28;20048;-82
2023/09/27 01:16:09;;;;;;;17.13;14.55;;;15.10;99.90;;;;;;5057660;28;20045;-82
2023/09/27 01:18:34;;;;;;;19.08;14.13;;;15.10;99.90;;;;;;5057477;28;20039;-82
2023/09/27 01:21:01;;;;;;;19.50;15.30;;;15.00;99.90;;;;;;5056184;28;20115;-83
2023/09/27 01:23:28;;;;;;;18.85;15.50;;;15.00;99.90;;;;;;5069382;28;20041;-84
2023/09/27 01:26:01;;;;;;;19.35;16.55;;;15.00;99.90;;;;;;5037711;28;20094;-84
2023/09/27 01:28:27;;;;;;;19.05;15.23;;;15.00;99.90;;;;;;5054051;28;20047;-84
2023/09/27 01:30:53;;;;;;;17.70;15.38;;;15.00;99.90;;;;;;5069572;28;20489;-84
2023/09/27 01:33:18;;;;;;;19.35;15.90;;;15.00;99.90;;;;;;5051316;28;20044;-84
2023/09/27 01:35:44;;;;;;;19.35;16.10;;;15.00;99.90;;;;;;5073008;28;20044;-83
2023/09/27 01:38:12;;;;;;;17.67;15.52;;;15.00;99.90;;;;;;5057269;28;20040;-83
2023/09/27 01:40:45;;;;;;;16.45;13.35;;;14.90;99.90;;;;;;5056180;28;20098;-83
2023/09/27 01:43:11;;;;;;;19.08;15.18;;;15.00;99.90;;;;;;5057087;28;20037;-83
2023/09/27 01:45:37;;;;;;;17.40;15.60;;;14.90;99.90;;;;;;5073162;28;20510;-83
2023/09/27 01:48:04;;;;;;;17.33;15.40;;;14.90;99.90;;;;;;5073457;28;20091;-83
2023/09/27 01:50:33;;;;;;;18.48;15.48;;;14.90;99.90;;;;;;5053479;28;20037;-84
2023/09/27 01:52:59;;;;;;;17.73;14.93;;;14.90;99.90;;;;;;5057143;28;20412;-84
2023/09/27 01:55:25;;;;;;;17.45;14.82;;;14.80;99.90;;;;;;5072832;28;20067;-84
2023/09/27 01:57:51;;;;;;;19.27;16.00;;;14.70;99.90;;;;;;5090395;28;20044;-83
2023/09/27 02:00:18;;;;;;;17.77;15.88;;;14.80;99.90;;;;;;5054954;28;20036;-84
2023/09/27 02:02:46;;;;;;;19.55;15.85;;;14.80;99.90;;;;;;5073527;28;20040;-85
2023/09/27 02:05:12;;;;;;;19.33;16.27;;;14.70;99.90;;;;;;5073722;28;20032;-84
2023/09/27 02:07:39;;;;;;;19.95;16.83;;;14.70;99.90;;;;;;5056710;28;20472;-85
2023/09/27 02:10:10;;;;;;;17.88;15.98;;;14.70;99.90;;;;;;5048310;28;20037;-85
2023/09/27 02:12:37;;;;;;;20.63;16.40;;;14.70;99.90;;;;;;5067211;28;20053;-84
2023/09/27 02:15:04;;;;;;;18.17;16.13;;;14.60;99.90;;;;;;5056417;28;20476;-85
2023/09/27 02:17:29;;;;;;;19.60;16.67;;;14.60;99.90;;;;;;5073099;28;20085;-85
2023/09/27 02:19:55;;;;;;;18.20;16.08;;;14.60;99.90;;;;;;5053992;28;20044;-84
2023/09/27 02:22:21;;;;;;;19.60;17.08;;;14.60;99.90;;;;;;5056353;28;20543;-84
2023/09/27 02:24:47;;;;;;;22.85;16.40;;;14.50;99.90;;;;;;5055598;28;20059;-84
2023/09/27 02:27:14;;;;;;;20.33;17.00;;;14.50;99.90;;;;;;5056490;28;20036;-84
2023/09/27 02:29:40;;;;;;;19.42;16.30;;;14.50;99.90;;;;;;5071926;28;20496;-83
2023/09/27 02:32:07;;;;;;;17.95;15.50;;;14.40;99.90;;;;;;5051233;28;20040;-84
2023/09/27 02:34:33;;;;;;;19.55;17.02;;;14.40;99.90;;;;;;5056413;28;20377;-84
2023/09/27 02:36:59;;;;;;;20.27;17.02;;;14.40;99.90;;;;;;5056215;28;20040;-84
2023/09/27 02:39:25;;;;;;;18.60;16.60;;;14.40;99.90;;;;;;5039606;28;20385;-84
2023/09/27 02:41:51;;;;;;;19.48;17.13;;;14.40;99.90;;;;;;5051257;28;20033;-84
2023/09/27 02:44:16;;;;;;;20.33;17.05;;;14.40;99.90;;;;;;5054871;28;20411;-84
2023/09/27 02:46:43;;;;;;;20.38;16.42;;;14.40;99.90;;;;;;5042658;28;20036;-84
2023/09/27 02:49:09;;;;;;;19.10;17.02;;;14.40;99.90;;;;;;5066828;28;20055;-83
2023/09/27 02:51:36;;;;;;;21.45;17.08;;;14.40;99.90;;;;;;5046453;28;20037;-84
2023/09/27 02:54:01;;;;;;;19.58;17.48;;;14.30;99.90;;;;;;5075901;28;20515;-84
2023/09/27 02:56:27;;;;;;;20.35;17.67;;;14.30;99.90;;;;;;5051503;28;20080;-83
2023/09/27 02:58:53;;;;;;;20.05;17.38;;;14.30;99.90;;;;;;5052285;28;20098;-83
2023/09/27 03:01:18;;;;;;;20.00;17.73;;;14.30;99.90;;;;;;5063948;28;20132;-83
2023/09/27 03:03:44;;;;;;;21.73;18.33;;;14.30;99.90;;;;;;5070547;28;20044;-83
2023/09/27 03:06:16;;;;;;;20.27;17.20;;;14.30;99.90;;;;;;5054683;28;20064;-84
2023/09/27 03:08:43;;;;;;;21.25;18.95;;;14.20;99.90;;;;;;5052554;28;20036;-84
2023/09/27 03:11:09;;;;;;;20.30;17.15;;;14.20;99.90;;;;;;5053742;28;20043;-84
2023/09/27 03:13:36;;;;;;;19.10;17.08;;;14.20;99.90;;;;;;5068523;28;20565;-83
2023/09/27 03:16:04;;;;;;;20.80;18.48;;;14.10;99.90;;;;;;5055129;28;20033;-83
2023/09/27 03:18:32;;;;;;;21.38;17.95;;;14.10;99.90;;;;;;5071861;28;20045;-83
2023/09/27 03:21:00;;;;;;;20.42;18.02;;;14.10;99.90;;;;;;5062922;28;20047;-83
2023/09/27 03:23:27;;;;;;;21.17;18.95;;;14.10;99.90;;;;;;5072806;28;20380;-83
2023/09/27 03:25:53;;;;;;;21.20;18.80;;;14.00;99.90;;;;;;5071999;28;20040;-83
2023/09/27 03:28:18;;;;;;;22.83;19.15;;;14.00;99.90;;;;;;5088620;28;20040;-83
2023/09/27 03:30:46;;;;;;;20.63;17.80;;;14.00;99.90;;;;;;5055185;28;20037;-83
2023/09/27 03:33:11;;;;;;;23.17;19.25;;;14.00;99.90;;;;;;5055101;28;20399;-83
2023/09/27 03:35:37;;;;;;;20.90;18.23;;;14.00;99.90;;;;;;5055173;28;20119;-83
2023/09/27 03:38:02;;;;;;;22.35;19.98;;;14.00;99.90;;;;;;5054312;28;20040;-84
2023/09/27 03:40:28;;;;;;;21.92;18.85;;;13.90;99.90;;;;;;5067632;28;20051;-84
2023/09/27 03:42:54;;;;;;;23.27;18.50;;;13.90;99.90;;;;;;5070007;28;20123;-84
2023/09/27 03:45:20;;;;;;;22.67;19.98;;;13.90;99.90;;;;;;5051878;28;20087;-84
2023/09/27 03:47:47;;;;;;;22.92;18.60;;;13.90;99.90;;;;;;5062575;28;20043;-84
2023/09/27 03:50:13;;;;;;;22.95;20.45;;;13.90;99.90;;;;;;5049824;28;20127;-84
2023/09/27 03:52:42;;;;;;;23.48;20.98;;;13.90;99.90;;;;;;5053757;28;20555;-84
2023/09/27 03:55:08;;;;;;;24.08;20.65;;;14.00;99.90;;;;;;5053194;28;20068;-84
2023/09/27 03:57:34;;;;;;;22.50;20.17;;;14.00;99.90;;;;;;5048555;28;20055;-83
2023/09/27 04:00:00;;;;;;;23.55;19.08;;;14.00;99.90;;;;;;5058982;28;20041;-84
2023/09/27 04:02:26;;;;;;;23.60;19.65;;;14.00;99.90;;;;;;5054283;28;20040;-84
2023/09/27 04:04:51;;;;;;;23.27;20.20;;;14.00;99.90;;;;;;5075784;28;20495;-84
2023/09/27 04:07:18;;;;;;;22.83;19.92;;;14.00;99.90;;;;;;5075635;28;20072;-84
2023/09/27 04:09:45;;;;;;;21.85;19.08;;;14.00;99.90;;;;;;5046298;28;20052;-84
2023/09/27 04:12:11;;;;;;;22.35;19.88;;;14.00;99.90;;;;;;5055656;28;20045;-84
2023/09/27 04:14:38;;;;;;;21.25;18.75;;;14.00;99.90;;;;;;5070301;28;20044;-84
2023/09/27 04:17:03;;;;;;;23.35;20.65;;;13.90;99.90;;;;;;5058547;28;20052;-84
2023/09/27 04:19:30;;;;;;;22.83;19.95;;;13.90;99.90;;;;;;5039787;28;20489;-84
2023/09/27 04:21:55;;;;;;;21.27;19.08;;;13.90;99.90;;;;;;5075310;28;20051;-85
2023/09/27 04:24:21;;;;;;;20.95;18.75;;;13.90;99.90;;;;;;5057566;28;20028;-84
2023/09/27 04:26:47;;;;;;;22.35;19.95;;;13.90;99.90;;;;;;5051149;28;20118;-84
2023/09/27 04:29:12;;;;;;;20.77;18.55;;;13.90;99.90;;;;;;5058201;28;20083;-84
2023/09/27 04:31:38;;;;;;;21.85;19.30;;;13.80;99.90;;;;;;5059110;28;20041;-84
2023/09/27 04:34:04;;;;;;;22.60;18.85;;;13.80;99.90;;;;;;5058480;28;20127;-84
2023/09/27 04:36:30;;;;;;;21.95;19.23;;;13.80;99.90;;;;;;5058434;28;20500;-84
2023/09/27 04:38:56;;;;;;;22.95;20.48;;;13.80;99.90;;;;;;5054861;28;20124;-83
2023/09/27 04:41:21;;;;;;;23.23;19.42;;;13.80;99.90;;;;;;5046252;28;20116;-84
2023/09/27 04:43:47;;;;;;;22.70;19.75;;;13.70;99.90;;;;;;5058285;28;20040;-84
2023/09/27 04:46:16;;;;;;;19.00;16.98;;;13.80;99.90;;;;;;5057256;28;20032;-83
2023/09/27 04:48:42;;;;;;;18.55;16.55;;;13.80;99.90;;;;;;5083867;28;20032;-84
2023/09/27 04:51:09;;;;;;;19.02;16.30;;;13.80;99.90;;;;;;5087706;28;20041;-83
2023/09/27 04:53:37;;;;;;;21.83;18.27;;;13.80;99.90;;;;;;5054268;28;20119;-84
2023/09/27 04:56:06;;;;;;;18.45;16.55;;;13.70;99.90;;;;;;5057907;28;20052;-83
2023/09/27 04:58:32;;;;;;;19.25;17.15;;;13.70;99.90;;;;;;5042964;28;20436;-83
2023/09/27 05:00:58;;;;;;;19.13;16.88;;;13.70;99.90;;;;;;5058889;28;20036;-84
2023/09/27 05:03:24;;;;;;;19.73;16.83;;;13.70;99.90;;;;;;5056308;28;20044;-84
2023/09/27 05:05:49;;;;;;;20.13;17.15;;;13.70;99.90;;;;;;5074679;28;20068;-84
2023/09/27 05:08:15;;;;;;;20.90;17.17;;;13.70;99.90;;;;;;5072222;28;20451;-84
2023/09/27 05:10:41;;;;;;;21.15;18.60;;;13.70;99.90;;;;;;5059821;28;20045;-83
2023/09/27 05:13:06;;;;;;;20.90;18.42;;;13.60;99.90;;;;;;5059197;28;20036;-84
2023/09/27 05:15:32;;;;;;;23.13;19.58;;;13.60;99.90;;;;;;5056590;28;20037;-84
2023/09/27 05:17:58;;;;;;;20.65;18.45;;;13.50;99.90;;;;;;5056279;28;20037;-84
2023/09/27 05:20:24;;;;;;;21.02;18.50;;;13.50;99.90;;;;;;5073349;28;20033;-84
2023/09/27 05:22:51;;;;;;;20.40;18.20;;;13.50;99.90;;;;;;5072250;28;20123;-84
2023/09/27 05:25:17;;;;;;;23.33;18.70;;;13.60;99.90;;;;;;5056692;28;20033;-84
2023/09/27 05:27:42;;;;;;;21.85;19.48;;;13.50;99.90;;;;;;5055411;28;20033;-84
2023/09/27 05:30:10;;;;;;;20.70;18.10;;;13.50;99.90;;;;;;5056529;28;20037;-84
2023/09/27 05:32:36;;;;;;;23.58;21.00;;;13.50;99.90;;;;;;5055697;28;20036;-84
2023/09/27 05:35:02;;;;;;;23.42;20.35;;;13.50;99.90;;;;;;5056659;28;20396;-84
2023/09/27 05:37:28;;;;;;;23.35;19.88;;;13.50;99.90;;;;;;5054265;28;20033;-84
2023/09/27 05:39:54;;;;;;;23.52;19.52;;;13.50;99.90;;;;;;5053985;28;20413;-85
2023/09/27 05:42:20;;;;;;;22.23;19.83;;;13.50;99.90;;;;;;5074028;28;20036;-85
2023/09/27 05:44:46;;;;;;;22.05;18.50;;;13.50;99.90;;;;;;5055412;28;20420;-84
2023/09/27 05:47:11;;;;;;;20.23;18.08;;;13.50;99.90;;;;;;5072717;28;20039;-84
2023/09/27 05:49:38;;;;;;;23.95;20.35;;;13.50;99.90;;;;;;5053642;28;20037;-84
2023/09/27 05:52:04;;;;;;;22.65;19.20;;;13.50;99.90;;;;;;5052783;28;20484;-84
2023/09/27 05:54:29;;;;;;;23.80;20.67;;;13.60;99.90;;;;;;5056581;28;20048;-84
2023/09/27 05:56:55;;;;;;;22.80;20.38;;;13.60;99.90;;;;;;5072720;28;20055;-84
2023/09/27 05:59:24;;;;;;;24.50;20.92;;;13.60;99.90;;;;;;5069011;28;20051;-84
2023/09/27 06:01:51;;;;;;;24.35;21.67;;;13.60;99.90;;;;;;5053066;28;20044;-84
2023/09/27 06:04:17;;;;;;;24.27;21.25;;;13.70;99.90;;;;;;5055446;28;20028;-84
2023/09/27 06:06:43;;;;;;;25.55;21.35;;;13.70;99.90;;;;;;5056577;28;20039;-84
2023/09/27 06:09:09;;;;;;;25.08;21.27;;;13.80;99.90;;;;;;5072437;28;20044;-84
2023/09/27 06:11:36;;;;;;;25.83;21.77;;;13.90;99.90;;;;;;5051559;28;20059;-85
2023/09/27 06:14:01;;;;;;;22.45;20.08;;;13.90;99.90;;;;;;5072284;28;20070;-84
2023/09/27 06:16:28;;;;;;;25.23;21.00;;;13.90;99.90;;;;;;5073324;28;20133;-84
2023/09/27 06:18:53;;;;;;;23.48;21.00;;;13.90;99.90;;;;;;5055775;28;20037;-85
2023/09/27 06:21:19;;;;;;;24.10;21.50;;;13.90;99.90;;;;;;5072383;28;20036;-84
2023/09/27 06:23:45;;;;;;;25.63;22.08;;;13.90;99.90;;;;;;5055670;28;20123;-85
2023/09/27 06:26:12;;;;;;;24.65;21.80;;;13.90;99.90;;;;;;5056286;28;20033;-85
2023/09/27 06:28:38;;;;;;;24.58;21.67;;;13.90;99.90;;;;;;5066453;28;20043;-85
2023/09/27 06:31:06;;;;;;;24.70;21.25;;;13.80;99.90;;;;;;5055554;28;20036;-85
2023/09/27 06:33:39;;;;;;;25.15;22.50;;;13.80;99.90;;;;;;5072848;28;20036;-84
2023/09/27 06:36:08;;;;;;;24.02;21.35;;;13.80;99.90;;;;;;5056092;28;20528;-84
2023/09/27 06:38:33;;;;;;;24.35;21.75;;;13.80;99.90;;;;;;5054659;28;20047;-84
2023/09/27 06:41:00;;;;;;;25.52;21.70;;;13.80;99.90;;;;;;5052853;28;20036;-85
2023/09/27 06:43:28;;;;;;;24.88;20.95;;;13.80;99.90;;;;;;5053445;28;20131;-84
2023/09/27 06:45:54;;;;;;;16.02;12.55;;;13.80;99.90;;;;;;5070745;28;20040;-80
2023/09/27 06:48:20;;;;;;;18.13;15.68;;;13.90;99.90;;;;;;5064914;28;20054;-84
2023/09/27 06:50:47;;;;;;;24.05;19.52;;;13.90;99.90;;;;;;5068640;28;20090;-82
2023/09/27 06:53:13;;;;;;;22.77;20.42;;;14.00;99.90;;;;;;5054107;28;20056;-83
2023/09/27 06:55:39;;;;;;;24.38;21.73;;;14.00;99.90;;;;;;5055487;28;20558;-83
2023/09/27 06:58:05;;;;;;;25.00;21.88;;;14.10;99.90;;;;;;5055770;28;20044;-83
2023/09/27 07:00:30;;;;;;;24.85;22.20;;;14.10;99.90;;;;;;5072227;28;20101;-83
2023/09/27 07:02:56;;;;;;;24.35;21.58;;;14.10;99.90;;;;;;5054585;28;20033;-83
2023/09/27 07:05:22;;;;;;;24.70;21.90;;;14.10;99.90;;;;;;5055465;28;20036;-83
2023/09/27 07:07:49;;;;;;;24.50;21.63;;;14.20;99.90;;;;;;5072174;28;20121;-83
2023/09/27 07:10:15;;;;;;;27.52;22.15;;;14.30;99.90;;;;;;5055318;28;20044;-83
2023/09/27 07:12:41;;;;;;;25.35;21.80;;;14.40;99.90;;;;;;5054173;28;20044;-83
2023/09/27 07:15:13;;;;;;;24.80;22.20;;;14.40;99.90;;;;;;5071987;28;20074;-83
2023/09/27 07:17:39;;;;;;;26.92;23.67;;;14.50;99.90;;;;;;5071962;28;20044;-83
2023/09/27 07:20:27;;;;;;;26.88;23.30;;;14.60;99.90;;;;;;5071895;28;20046;-84
2023/09/27 07:22:54;;;;;;;26.42;22.45;;;14.60;99.90;;;;;;5051305;28;20117;-83
2023/09/27 07:25:21;;;;;;;25.35;21.15;;;14.70;99.90;;;;;;5054181;28;20028;-83
2023/09/27 07:27:50;;;;;;;26.27;22.85;;;14.70;99.90;;;;;;5055420;28;20032;-84
2023/09/27 07:30:23;;;;;;;25.60;22.65;;;14.80;99.90;;;;;;5054158;28;20063;-84
2023/09/27 07:32:56;;;;;;;27.20;24.23;;;14.80;99.90;;;;;;5072348;28;20504;-83
2023/09/27 07:35:23;;;;;;;26.35;23.33;;;14.80;99.90;;;;;;5055200;28;20052;-84
2023/09/27 07:37:49;;;;;;;26.95;24.05;;;14.80;99.90;;;;;;5055117;28;20044;-84
2023/09/27 07:40:15;;;;;;;25.42;22.75;;;14.90;99.90;;;;;;5070279;28;20034;-83
2023/09/27 07:42:42;;;;;;;29.67;24.05;;;14.90;99.90;;;;;;5054995;28;20435;-83
2023/09/27 07:45:23;;;;;;;28.08;25.08;;;15.00;99.90;;;;;;5055376;28;20076;-84
2023/09/27 07:47:53;;;;;;;27.15;24.25;;;15.00;99.90;;;;;;5055039;28;20056;-84
2023/09/27 07:50:33;;;;;;;28.48;25.38;;;15.00;99.90;;;;;;5070535;28;20050;-83
2023/09/27 07:52:59;;;;;;;27.70;24.58;;;15.10;99.90;;;;;;5055188;28;20054;-84
2023/09/27 07:55:26;;;;;;;26.77;23.98;;;15.10;99.90;;;;;;5071473;28;20110;-84
2023/09/27 07:57:52;;;;;;;27.98;24.98;;;15.10;99.90;;;;;;5054939;28;20040;-84
2023/09/27 08:00:24;;;;;;;28.58;24.63;;;15.10;99.90;;;;;;5053760;28;20450;-83
2023/09/27 08:02:51;;;;;;;27.27;24.38;;;15.10;99.90;;;;;;5071552;28;20115;-83
2023/09/27 08:05:17;;;;;;;26.58;23.75;;;15.20;99.90;;;;;;5054852;28;20120;-84
2023/09/27 08:07:46;;;;;;;31.92;24.05;;;15.20;99.90;;;;;;5071466;28;20043;-84
2023/09/27 08:10:12;;;;;;;26.42;23.63;;;15.30;99.90;;;;;;5067602;28;20045;-83
2023/09/27 08:12:38;;;;;;;27.58;24.67;;;15.40;99.90;;;;;;5053799;28;20071;-83
2023/09/27 08:15:05;;;;;;;30.77;24.73;;;15.40;99.90;;;;;;5051424;28;20490;-84
2023/09/27 08:17:32;;;;;;;27.13;24.02;;;15.40;99.90;;;;;;5051440;28;20037;-83
2023/09/27 08:20:05;;;;;;;26.85;23.58;;;15.50;99.90;;;;;;5034768;28;20136;-84
2023/09/27 08:22:34;;;;;;;27.30;23.70;;;15.50;99.90;;;;;;5071070;28;20041;-83
2023/09/27 08:25:00;;;;;;;29.10;25.70;;;15.60;99.90;;;;;;5054947;28;20389;-84
2023/09/27 08:27:26;;;;;;;30.48;24.50;;;15.70;99.90;;;;;;5044359;28;20037;-84
2023/09/27 08:29:52;;;;;;;26.65;23.73;;;15.80;99.90;;;;;;5051581;28;20047;-84
2023/09/27 08:32:18;;;;;;;27.77;23.58;;;15.90;99.90;;;;;;5065849;28;20040;-84
2023/09/27 08:34:44;;;;;;;29.13;25.70;;;16.10;99.90;;;;;;5054570;28;20089;-84
2023/09/27 08:37:11;;;;;;;29.58;25.00;;;16.20;99.90;;;;;;5071255;28;20040;-84
2023/09/27 08:39:38;;;;;;;27.65;24.67;;;16.30;99.90;;;;;;5054634;28;20412;-84
2023/09/27 08:42:04;;;;;;;28.30;25.02;;;16.40;99.90;;;;;;5046812;28;20033;-84
2023/09/27 08:44:31;;;;;;;29.33;24.27;;;16.50;99.90;;;;;;5038313;28;20037;-84
2023/09/27 08:46:57;;;;;;;26.50;23.35;;;16.50;99.90;;;;;;5038232;28;20124;-84
2023/09/27 08:49:24;;;;;;;28.17;24.20;;;16.60;99.90;;;;;;5055036;28;20465;-84
2023/09/27 08:51:51;;;;;;;25.35;22.25;;;16.80;99.90;;;;;;5042617;28;20028;-84
2023/09/27 08:54:19;;;;;;;25.70;22.92;;;16.80;99.90;;;;;;5058026;28;20040;-84
2023/09/27 08:56:48;;;;;;;25.85;21.85;;;17.00;99.90;;;;;;5057921;28;20131;-84
2023/09/27 08:59:14;;;;;;;30.58;24.42;;;17.00;99.90;;;;;;5074538;28;20044;-84
2023/09/27 09:01:43;;;;;;;28.10;22.02;;;17.10;99.90;;;;;;5056824;28;20393;-84
2023/09/27 09:04:09;;;;;;;25.63;22.92;;;17.20;99.90;;;;;;5057946;28;20147;-84
2023/09/27 09:06:35;;;;;;;26.33;22.23;;;17.20;99.90;;;;;;5074531;28;20119;-84
2023/09/27 09:09:10;;;;;;;26.27;22.02;;;17.30;99.90;;;;;;5057756;28;20078;-84
2023/09/27 09:11:54;;;;;;;27.10;21.45;;;17.40;99.90;;;;;;5057685;28;20045;-85
2023/09/27 09:14:43;;;;;;;25.73;18.85;;;17.50;99.90;;;;;;5091163;28;20439;-85
2023/09/27 09:17:17;;;;;;;22.98;20.00;;;17.60;99.90;;;;;;5074296;28;20544;-84
2023/09/27 09:19:43;;;;;;;23.40;18.92;;;17.70;99.90;;;;;;5074310;28;20047;-85
2023/09/27 09:22:11;;;;;;;21.15;18.00;;;17.80;99.90;;;;;;5057424;28;20123;-85
2023/09/27 09:24:41;;;;;;;24.13;18.38;;;17.90;99.90;;;;;;5072217;28;20077;-85
2023/09/27 09:27:12;;;;;;;22.23;16.63;;;18.00;99.90;;;;;;5057477;28;20124;-84
2023/09/27 09:29:53;;;;;;;21.03;16.17;;;17.90;99.90;;;;;;5057469;28;20501;-85
2023/09/27 09:32:23;;;;;;;19.38;14.27;;;18.10;99.90;;;;;;5050959;28;20349;-85
2023/09/27 09:34:53;;;;;;;18.70;12.50;;;18.20;99.90;;;;;;5054106;28;20501;-85
2023/09/27 09:37:20;;;;;;;18.70;12.55;;;18.30;99.90;;;;;;5054162;28;20044;-85
2023/09/27 09:39:48;;;;;;;18.48;11.43;;;18.40;99.90;;;;;;5053911;28;20053;-85
2023/09/27 09:42:32;;;;;;;16.27;11.80;;;18.50;99.90;;;;;;5056487;28;20468;-85
2023/09/27 09:45:06;;;;;;;15.52;9.85;;;18.60;99.90;;;;;;5056729;28;20045;-85
2023/09/27 09:47:36;;;;;;;17.15;10.68;;;18.60;99.90;;;;;;5057060;28;20040;-85
2023/09/27 09:50:16;;;;;;;18.23;11.68;;;18.70;99.90;;;;;;5073734;28;20032;-85
2023/09/27 09:52:58;;;;;;;15.88;9.38;;;18.90;99.90;;;;;;5051850;28;20447;-85
2023/09/27 09:55:26;;;;;;;14.80;7.70;;;18.90;99.90;;;;;;5053510;28;20096;-85
2023/09/27 09:58:27;;;;;;;15.27;9.63;;;19.10;99.90;;;;;;5053779;28;20401;-85
2023/09/27 10:00:54;;;;;;;20.33;10.93;;;19.20;99.90;;;;;;5036942;28;20037;-85
2023/09/27 10:03:21;;;;;;;18.20;11.68;;;19.10;99.90;;;;;;5059375;28;20390;-85
2023/09/27 10:05:50;;;;;;;16.65;10.05;;;19.10;99.90;;;;;;5056706;28;20044;-85
2023/09/27 10:08:17;;;;;;;17.08;11.80;;;19.10;99.90;;;;;;5073296;28;20447;-85
2023/09/27 10:10:43;;;;;;;18.33;12.70;;;19.30;99.90;;;;;;5073436;28;20036;-85
2023/09/27 10:13:10;;;;;;;15.15;10.30;;;19.30;99.90;;;;;;5071940;28;20516;-84
2023/09/27 10:15:38;;;;;;;13.13;8.63;;;19.50;99.90;;;;;;5073144;28;20052;-85
2023/09/27 10:18:22;;;;;;;14.75;10.15;;;19.70;99.90;;;;;;5073198;28;20115;-84
2023/09/27 10:21:08;;;;;;;14.80;9.90;;;19.80;99.90;;;;;;5056371;28;20102;-85
2023/09/27 10:23:46;;;;;;;13.20;8.00;;;19.70;99.90;;;;;;5050213;28;20037;-77
2023/09/27 10:26:31;;;;;;;13.10;8.23;;;19.80;99.90;;;;;;5055572;28;20390;-85
2023/09/27 10:29:03;;;;;;;13.95;6.80;;;19.80;99.90;;;;;;5063806;28;20119;-86
2023/09/27 10:31:32;;;;;;;;;;;19.80;99.90;;;;;;5086511;28;20076;-86
2023/09/27 10:33:57;;;;;;;13.82;7.72;;;19.80;99.90;;;;;;5059681;28;20003;-85
2023/09/27 10:36:23;;;;;;;11.95;7.20;;;19.80;99.90;;;;;;5072863;28;20469;-86
2023/09/27 10:38:51;;;;;;;11.50;7.20;;;19.90;99.90;;;;;;5053662;28;20036;-86
2023/09/27 10:41:32;;;;;;;11.40;6.82;;;19.90;99.90;;;;;;5052671;28;20043;-86
2023/09/27 10:43:59;;;;;;;12.55;7.40;;;19.90;99.90;;;;;;5048963;28;20035;-85
2023/09/27 10:46:25;;;;;;;12.68;6.20;;;19.70;99.90;;;;;;5055951;28;20036;-86
2023/09/27 10:48:55;;;;;;;12.45;7.00;;;19.80;99.90;;;;;;5055988;28;20475;-86
2023/09/27 10:51:21;;;;;;;13.30;5.72;;;20.00;99.90;;;;;;5054867;28;20028;-86
2023/09/27 10:53:48;;;;;;;18.35;6.97;;;19.80;99.90;;;;;;5068471;28;20033;-85
2023/09/27 10:56:14;;;;;;;12.23;6.45;;;19.90;99.90;;;;;;5076966;28;20135;-85
2023/09/27 10:58:50;;;;;;;11.82;6.85;;;19.90;99.90;;;;;;5072311;28;20499;-86
2023/09/27 11:01:23;;;;;;;8.70;5.68;;;19.90;99.90;;;;;;5055880;28;20393;-86
2023/09/27 11:03:57;;;;;;;12.18;5.97;;;20.00;99.90;;;;;;5050006;28;20037;-86
2023/09/27 11:06:23;;;;;;;9.18;5.13;;;20.10;99.90;;;;;;5041752;28;20036;-85
2023/09/27 11:08:49;;;;;;;10.07;5.10;;;20.20;99.90;;;;;;5057211;28;20497;-86
2023/09/27 11:11:14;;;;;;;10.07;5.50;;;20.20;99.90;;;;;;5051122;28;20062;-86
2023/09/27 11:13:44;;;;;;;10.75;6.47;;;20.40;99.90;;;;;;5065701;28;20064;-86
2023/09/27 11:16:12;;;;;;;11.77;6.18;;;20.50;99.90;;;;;;5069755;28;20033;-86
2023/09/27 11:18:57;;;;;;;10.75;5.57;;;20.30;99.90;;;;;;5069175;28;20040;-86
2023/09/27 11:21:24;;;;;;;9.27;5.93;;;20.30;99.90;;;;;;5069413;28;20558;-86
2023/09/27 11:24:01;;;;;;;9.73;5.72;;;20.20;99.90;;;;;;5046585;28;20504;-86
2023/09/27 11:26:32;;;;;;;12.02;6.95;;;20.20;99.90;;;;;;5054486;28;20062;-86
2023/09/27 11:29:05;;;;;;;11.45;7.60;;;20.40;99.90;;;;;;5088742;28;20032;-86
2023/09/27 11:31:35;;;;;;;12.88;7.63;;;20.40;99.90;;;;;;5055641;28;20044;-86
2023/09/27 11:34:11;;;;;;;12.73;7.57;;;20.30;99.90;;;;;;5055189;28;20481;-86
2023/09/27 11:36:41;;;;;;;13.02;6.85;;;20.30;99.90;;;;;;5071836;28;20032;-86
2023/09/27 11:39:07;;;;;;;10.82;7.10;;;20.30;99.90;;;;;;5049936;28;20507;-86
2023/09/27 11:41:32;;;;;;;10.55;6.80;;;20.30;99.90;;;;;;5087632;28;20032;-86
2023/09/27 11:43:58;;;;;;;10.30;6.88;;;20.40;99.90;;;;;;5055314;28;20495;-86
2023/09/27 11:46:27;;;;;;;11.15;7.35;;;20.40;99.90;;;;;;5055090;28;20041;-86
2023/09/27 11:48:53;;;;;;;11.38;6.55;;;20.30;99.90;;;;;;5068771;28;20443;-86
2023/09/27 11:51:19;;;;;;;13.35;7.57;;;20.30;99.90;;;;;;5065937;28;20041;-87
2023/09/27 11:53:45;;;;;;;11.65;7.82;;;20.40;99.90;;;;;;5054866;28;20082;-86
2023/09/27 11:56:12;;;;;;;11.43;7.60;;;20.40;99.90;;;;;;5053710;28;20048;-86
2023/09/27 11:58:37;;;;;;;12.10;7.97;;;20.40;99.90;;;;;;5049014;28;20041;-85
2023/09/27 12:01:05;;;;;;;11.70;8.43;;;20.40;99.90;;;;;;5067445;28;20037;-86
2023/09/27 12:03:30;;;;;;;13.50;8.35;;;20.30;99.90;;;;;;5054744;28;20033;-86
2023/09/27 12:05:56;;;;;;;12.68;9.15;;;20.30;99.90;;;;;;5070321;28;20702;-86
2023/09/27 12:08:22;;;;;;;12.48;8.00;;;20.30;99.90;;;;;;5070318;28;20040;-86
2023/09/27 12:10:47;;;;;;;16.00;9.30;;;20.30;99.90;;;;;;5053801;28;20040;-86
2023/09/27 12:13:13;;;;;;;11.80;8.02;;;20.20;99.90;;;;;;5067567;28;20044;-86
2023/09/27 12:15:39;;;;;;;14.95;8.20;;;20.20;99.90;;;;;;5071231;28;20048;-86
2023/09/27 12:18:04;;;;;;;14.48;9.88;;;20.30;99.90;;;;;;5051354;28;20040;-86
2023/09/27 12:20:30;;;;;;;13.35;9.85;;;20.30;99.90;;;;;;5055370;28;20558;-86
2023/09/27 12:22:57;;;;;;;13.38;10.70;;;20.30;99.90;;;;;;5063714;28;20064;-86
2023/09/27 12:25:22;;;;;;;15.00;11.63;;;20.30;99.90;;;;;;5073039;28;20486;-86
2023/09/27 12:27:48;;;;;;;16.95;12.38;;;20.40;99.90;;;;;;5058013;28;20123;-87
2023/09/27 12:30:13;;;;;;;13.48;9.68;;;20.40;99.90;;;;;;5041998;28;20039;-86